sensor_id;sensor_type;location;lat;lon;timestamp;P1;durP1;ratioP1;P2;durP2;ratioP2
249;SDS011;109;19.806;-70.704;2022-11-15T00:00:11;26.77;;;5.00;;
249;SDS011;109;19.806;-70.704;2022-11-15T00:02:56;27.60;;;4.37;;
249;SDS011;109;19.806;-70.704;2022-11-15T00:05:41;20.37;;;3.70;;
249;SDS011;109;19.806;-70.704;2022-11-15T00:08:28;22.73;;;4.10;;
249;SDS011;109;19.806;-70.704;2022-11-15T00:11:15;16.00;;;3.57;;
249;SDS011;109;19.806;-70.704;2022-11-15T00:14:00;22.67;;;4.07;;
249;SDS011;109;19.806;-70.704;2022-11-15T00:16:46;23.20;;;5.07;;
249;SDS011;109;19.806;-70.704;2022-11-15T00:19:31;16.67;;;3.40;;
249;SDS011;109;19.806;-70.704;2022-11-15T00:22:17;14.10;;;3.30;;
249;SDS011;109;19.806;-70.704;2022-11-15T00:25:02;11.80;;;4.30;;
249;SDS011;109;19.806;-70.704;2022-11-15T00:27:47;13.50;;;4.43;;
249;SDS011;109;19.806;-70.704;2022-11-15T00:30:32;11.03;;;4.80;;
249;SDS011;109;19.806;-70.704;2022-11-15T00:33:17;11.13;;;4.50;;
249;SDS011;109;19.806;-70.704;2022-11-15T00:36:03;13.07;;;4.53;;
249;SDS011;109;19.806;-70.704;2022-11-15T00:38:48;15.37;;;4.60;;
249;SDS011;109;19.806;-70.704;2022-11-15T00:41:33;14.60;;;4.07;;
249;SDS011;109;19.806;-70.704;2022-11-15T00:44:18;15.23;;;4.93;;
249;SDS011;109;19.806;-70.704;2022-11-15T00:47:03;14.77;;;5.13;;
249;SDS011;109;19.806;-70.704;2022-11-15T00:49:49;13.07;;;5.10;;
249;SDS011;109;19.806;-70.704;2022-11-15T00:52:33;13.60;;;5.13;;
249;SDS011;109;19.806;-70.704;2022-11-15T00:55:19;15.97;;;4.80;;
249;SDS011;109;19.806;-70.704;2022-11-15T00:58:03;17.50;;;4.97;;
249;SDS011;109;19.806;-70.704;2022-11-15T01:00:48;16.43;;;5.37;;
249;SDS011;109;19.806;-70.704;2022-11-15T01:03:34;14.03;;;5.00;;
249;SDS011;109;19.806;-70.704;2022-11-15T01:06:20;11.80;;;4.30;;
249;SDS011;109;19.806;-70.704;2022-11-15T01:09:11;13.23;;;4.80;;
249;SDS011;109;19.806;-70.704;2022-11-15T01:12:04;14.63;;;4.27;;
249;SDS011;109;19.806;-70.704;2022-11-15T01:14:56;15.27;;;4.97;;
249;SDS011;109;19.806;-70.704;2022-11-15T01:17:48;13.60;;;4.73;;
249;SDS011;109;19.806;-70.704;2022-11-15T01:20:39;9.63;;;3.80;;
249;SDS011;109;19.806;-70.704;2022-11-15T01:23:32;18.23;;;4.63;;
249;SDS011;109;19.806;-70.704;2022-11-15T01:26:24;9.50;;;4.17;;
249;SDS011;109;19.806;-70.704;2022-11-15T01:29:16;22.17;;;5.10;;
249;SDS011;109;19.806;-70.704;2022-11-15T01:32:07;13.13;;;3.90;;
249;SDS011;109;19.806;-70.704;2022-11-15T01:34:58;15.10;;;5.17;;
249;SDS011;109;19.806;-70.704;2022-11-15T01:37:58;13.40;;;4.17;;
249;SDS011;109;19.806;-70.704;2022-11-15T01:40:58;13.97;;;4.40;;
249;SDS011;109;19.806;-70.704;2022-11-15T01:43:57;8.83;;;4.40;;
249;SDS011;109;19.806;-70.704;2022-11-15T01:47:18;15.17;;;4.00;;
249;SDS011;109;19.806;-70.704;2022-11-15T01:50:14;11.33;;;4.13;;
249;SDS011;109;19.806;-70.704;2022-11-15T01:53:18;10.67;;;4.00;;
249;SDS011;109;19.806;-70.704;2022-11-15T01:56:13;13.70;;;4.40;;
249;SDS011;109;19.806;-70.704;2022-11-15T01:59:16;13.43;;;4.47;;
249;SDS011;109;19.806;-70.704;2022-11-15T02:02:15;10.33;;;3.83;;
249;SDS011;109;19.806;-70.704;2022-11-15T02:05:07;12.57;;;4.07;;
249;SDS011;109;19.806;-70.704;2022-11-15T02:08:04;18.57;;;4.27;;
249;SDS011;109;19.806;-70.704;2022-11-15T02:10:56;10.90;;;4.20;;
249;SDS011;109;19.806;-70.704;2022-11-15T02:13:55;20.53;;;4.40;;
249;SDS011;109;19.806;-70.704;2022-11-15T02:17:02;11.43;;;4.00;;
249;SDS011;109;19.806;-70.704;2022-11-15T02:23:21;9.43;;;3.30;;
249;SDS011;109;19.806;-70.704;2022-11-15T02:43:51;22.27;;;4.83;;
249;SDS011;109;19.806;-70.704;2022-11-15T02:46:58;25.90;;;5.23;;
249;SDS011;109;19.806;-70.704;2022-11-15T02:50:08;16.10;;;4.50;;
249;SDS011;109;19.806;-70.704;2022-11-15T02:53:11;39.00;;;7.03;;
249;SDS011;109;19.806;-70.704;2022-11-15T02:56:01;28.33;;;5.20;;
249;SDS011;109;19.806;-70.704;2022-11-15T03:05:35;8.50;;;3.80;;
249;SDS011;109;19.806;-70.704;2022-11-15T03:12:07;13.00;;;4.00;;
249;SDS011;109;19.806;-70.704;2022-11-15T03:15:24;7.33;;;3.63;;
249;SDS011;109;19.806;-70.704;2022-11-15T03:18:32;7.30;;;2.90;;
249;SDS011;109;19.806;-70.704;2022-11-15T03:21:34;11.30;;;3.57;;
249;SDS011;109;19.806;-70.704;2022-11-15T03:24:28;7.90;;;4.37;;
249;SDS011;109;19.806;-70.704;2022-11-15T03:27:31;9.63;;;3.17;;
249;SDS011;109;19.806;-70.704;2022-11-15T03:30:27;6.60;;;3.67;;
249;SDS011;109;19.806;-70.704;2022-11-15T03:33:28;15.07;;;3.77;;
249;SDS011;109;19.806;-70.704;2022-11-15T03:36:27;8.63;;;3.80;;
249;SDS011;109;19.806;-70.704;2022-11-15T03:39:29;10.07;;;3.40;;
249;SDS011;109;19.806;-70.704;2022-11-15T03:42:28;6.67;;;3.47;;
249;SDS011;109;19.806;-70.704;2022-11-15T03:45:28;4.93;;;3.20;;
249;SDS011;109;19.806;-70.704;2022-11-15T03:48:37;5.73;;;3.20;;
249;SDS011;109;19.806;-70.704;2022-11-15T03:51:41;9.60;;;3.57;;
249;SDS011;109;19.806;-70.704;2022-11-15T03:54:32;5.10;;;3.17;;
249;SDS011;109;19.806;-70.704;2022-11-15T03:57:30;14.00;;;3.10;;
249;SDS011;109;19.806;-70.704;2022-11-15T04:00:22;8.53;;;3.13;;
249;SDS011;109;19.806;-70.704;2022-11-15T04:03:20;5.00;;;3.57;;
249;SDS011;109;19.806;-70.704;2022-11-15T04:06:20;5.13;;;3.30;;
249;SDS011;109;19.806;-70.704;2022-11-15T04:09:19;6.60;;;3.30;;
249;SDS011;109;19.806;-70.704;2022-11-15T04:12:16;6.63;;;3.53;;
249;SDS011;109;19.806;-70.704;2022-11-15T04:15:21;6.77;;;3.60;;
249;SDS011;109;19.806;-70.704;2022-11-15T04:18:21;11.30;;;3.90;;
249;SDS011;109;19.806;-70.704;2022-11-15T04:21:12;8.70;;;3.27;;
249;SDS011;109;19.806;-70.704;2022-11-15T04:24:30;5.20;;;3.10;;
249;SDS011;109;19.806;-70.704;2022-11-15T04:27:28;8.40;;;3.70;;
249;SDS011;109;19.806;-70.704;2022-11-15T04:30:20;11.13;;;3.57;;
249;SDS011;109;19.806;-70.704;2022-11-15T04:33:18;8.93;;;3.47;;
249;SDS011;109;19.806;-70.704;2022-11-15T04:36:10;8.90;;;4.27;;
249;SDS011;109;19.806;-70.704;2022-11-15T04:39:34;7.80;;;3.10;;
249;SDS011;109;19.806;-70.704;2022-11-15T04:42:33;6.63;;;3.53;;
249;SDS011;109;19.806;-70.704;2022-11-15T04:45:25;9.77;;;3.90;;
249;SDS011;109;19.806;-70.704;2022-11-15T04:48:29;6.30;;;3.57;;
249;SDS011;109;19.806;-70.704;2022-11-15T04:51:27;6.70;;;3.10;;
249;SDS011;109;19.806;-70.704;2022-11-15T04:54:19;5.77;;;3.50;;
249;SDS011;109;19.806;-70.704;2022-11-15T04:57:16;8.90;;;4.90;;
249;SDS011;109;19.806;-70.704;2022-11-15T05:00:09;13.33;;;3.87;;
249;SDS011;109;19.806;-70.704;2022-11-15T05:03:10;10.37;;;4.07;;
249;SDS011;109;19.806;-70.704;2022-11-15T05:06:20;12.80;;;3.67;;
249;SDS011;109;19.806;-70.704;2022-11-15T05:09:19;8.83;;;3.73;;
249;SDS011;109;19.806;-70.704;2022-11-15T05:12:18;13.67;;;4.47;;
249;SDS011;109;19.806;-70.704;2022-11-15T05:15:10;7.27;;;3.90;;
249;SDS011;109;19.806;-70.704;2022-11-15T05:18:07;11.57;;;3.60;;
249;SDS011;109;19.806;-70.704;2022-11-15T05:21:07;7.17;;;3.43;;
249;SDS011;109;19.806;-70.704;2022-11-15T05:24:09;9.03;;;4.20;;
249;SDS011;109;19.806;-70.704;2022-11-15T05:27:08;7.57;;;4.20;;
249;SDS011;109;19.806;-70.704;2022-11-15T05:29:59;10.17;;;4.33;;
249;SDS011;109;19.806;-70.704;2022-11-15T05:32:56;15.33;;;4.17;;
249;SDS011;109;19.806;-70.704;2022-11-15T05:35:50;6.53;;;3.97;;
249;SDS011;109;19.806;-70.704;2022-11-15T05:39:02;14.47;;;5.10;;
249;SDS011;109;19.806;-70.704;2022-11-15T05:42:11;11.10;;;4.13;;
249;SDS011;109;19.806;-70.704;2022-11-15T05:45:06;12.40;;;4.27;;
249;SDS011;109;19.806;-70.704;2022-11-15T05:48:06;9.30;;;4.10;;
249;SDS011;109;19.806;-70.704;2022-11-15T05:50:59;7.13;;;4.47;;
249;SDS011;109;19.806;-70.704;2022-11-15T05:54:01;9.23;;;4.43;;
249;SDS011;109;19.806;-70.704;2022-11-15T05:56:59;9.00;;;4.00;;
249;SDS011;109;19.806;-70.704;2022-11-15T05:59:51;6.50;;;4.73;;
249;SDS011;109;19.806;-70.704;2022-11-15T06:02:49;7.50;;;4.50;;
249;SDS011;109;19.806;-70.704;2022-11-15T06:05:41;9.13;;;4.50;;
249;SDS011;109;19.806;-70.704;2022-11-15T06:08:40;9.37;;;5.00;;
249;SDS011;109;19.806;-70.704;2022-11-15T06:11:39;10.17;;;4.83;;
249;SDS011;109;19.806;-70.704;2022-11-15T06:14:38;16.33;;;5.10;;
249;SDS011;109;19.806;-70.704;2022-11-15T06:17:36;13.80;;;5.10;;
249;SDS011;109;19.806;-70.704;2022-11-15T06:20:27;11.60;;;4.90;;
249;SDS011;109;19.806;-70.704;2022-11-15T06:23:28;8.23;;;4.80;;
249;SDS011;109;19.806;-70.704;2022-11-15T06:26:30;8.50;;;4.83;;
249;SDS011;109;19.806;-70.704;2022-11-15T06:29:22;10.23;;;4.93;;
249;SDS011;109;19.806;-70.704;2022-11-15T06:32:20;12.23;;;5.40;;
249;SDS011;109;19.806;-70.704;2022-11-15T06:35:12;9.53;;;4.80;;
249;SDS011;109;19.806;-70.704;2022-11-15T06:38:10;8.70;;;4.47;;
249;SDS011;109;19.806;-70.704;2022-11-15T06:41:09;7.77;;;5.37;;
249;SDS011;109;19.806;-70.704;2022-11-15T06:44:09;14.17;;;5.40;;
249;SDS011;109;19.806;-70.704;2022-11-15T06:47:07;13.80;;;5.20;;
249;SDS011;109;19.806;-70.704;2022-11-15T06:49:58;10.17;;;5.20;;
249;SDS011;109;19.806;-70.704;2022-11-15T06:53:00;13.37;;;5.83;;
249;SDS011;109;19.806;-70.704;2022-11-15T06:55:53;11.53;;;6.10;;
249;SDS011;109;19.806;-70.704;2022-11-15T06:58:55;8.60;;;4.87;;
249;SDS011;109;19.806;-70.704;2022-11-15T07:01:54;8.97;;;4.80;;
249;SDS011;109;19.806;-70.704;2022-11-15T07:04:46;7.73;;;5.10;;
249;SDS011;109;19.806;-70.704;2022-11-15T07:07:50;13.87;;;4.90;;
249;SDS011;109;19.806;-70.704;2022-11-15T07:10:43;5.60;;;4.50;;
249;SDS011;109;19.806;-70.704;2022-11-15T07:13:41;6.73;;;5.10;;
249;SDS011;109;19.806;-70.704;2022-11-15T07:16:45;6.90;;;4.60;;
249;SDS011;109;19.806;-70.704;2022-11-15T07:19:36;10.77;;;4.67;;
249;SDS011;109;19.806;-70.704;2022-11-15T07:22:35;8.63;;;4.53;;
249;SDS011;109;19.806;-70.704;2022-11-15T07:25:25;7.60;;;4.43;;
249;SDS011;109;19.806;-70.704;2022-11-15T07:28:28;8.93;;;4.70;;
249;SDS011;109;19.806;-70.704;2022-11-15T07:31:26;8.00;;;4.77;;
249;SDS011;109;19.806;-70.704;2022-11-15T07:34:17;6.17;;;4.40;;
249;SDS011;109;19.806;-70.704;2022-11-15T07:37:17;5.27;;;4.33;;
249;SDS011;109;19.806;-70.704;2022-11-15T07:40:15;6.30;;;4.77;;
249;SDS011;109;19.806;-70.704;2022-11-15T07:43:12;6.53;;;4.90;;
249;SDS011;109;19.806;-70.704;2022-11-15T07:46:07;9.90;;;5.10;;
249;SDS011;109;19.806;-70.704;2022-11-15T07:49:06;12.77;;;5.67;;
249;SDS011;109;19.806;-70.704;2022-11-15T07:52:04;11.63;;;4.57;;
249;SDS011;109;19.806;-70.704;2022-11-15T07:54:55;11.13;;;5.10;;
249;SDS011;109;19.806;-70.704;2022-11-15T07:58:01;9.40;;;4.33;;
249;SDS011;109;19.806;-70.704;2022-11-15T08:00:55;11.53;;;5.57;;
249;SDS011;109;19.806;-70.704;2022-11-15T08:04:00;11.10;;;5.30;;
249;SDS011;109;19.806;-70.704;2022-11-15T08:06:57;16.63;;;5.17;;
249;SDS011;109;19.806;-70.704;2022-11-15T08:09:49;10.60;;;4.93;;
249;SDS011;109;19.806;-70.704;2022-11-15T08:12:46;12.33;;;4.97;;
249;SDS011;109;19.806;-70.704;2022-11-15T08:15:38;14.00;;;5.03;;
249;SDS011;109;19.806;-70.704;2022-11-15T08:18:36;7.67;;;4.63;;
249;SDS011;109;19.806;-70.704;2022-11-15T08:21:35;11.03;;;4.90;;
249;SDS011;109;19.806;-70.704;2022-11-15T08:24:28;8.83;;;4.70;;
249;SDS011;109;19.806;-70.704;2022-11-15T08:27:25;11.33;;;5.07;;
249;SDS011;109;19.806;-70.704;2022-11-15T08:30:17;9.90;;;4.93;;
249;SDS011;109;19.806;-70.704;2022-11-15T08:33:16;7.80;;;4.90;;
249;SDS011;109;19.806;-70.704;2022-11-15T08:36:10;12.77;;;5.70;;
249;SDS011;109;19.806;-70.704;2022-11-15T08:39:15;8.80;;;5.20;;
249;SDS011;109;19.806;-70.704;2022-11-15T08:42:19;7.97;;;5.07;;
249;SDS011;109;19.806;-70.704;2022-11-15T08:45:11;12.93;;;5.77;;
249;SDS011;109;19.806;-70.704;2022-11-15T08:48:09;10.77;;;4.90;;
249;SDS011;109;19.806;-70.704;2022-11-15T08:51:08;7.53;;;5.30;;
249;SDS011;109;19.806;-70.704;2022-11-15T08:54:06;14.70;;;5.53;;
249;SDS011;109;19.806;-70.704;2022-11-15T08:57:05;11.20;;;5.37;;
249;SDS011;109;19.806;-70.704;2022-11-15T08:59:57;10.97;;;5.57;;
249;SDS011;109;19.806;-70.704;2022-11-15T09:02:55;9.53;;;4.93;;
249;SDS011;109;19.806;-70.704;2022-11-15T09:05:47;12.20;;;6.23;;
249;SDS011;109;19.806;-70.704;2022-11-15T09:08:45;10.77;;;5.17;;
249;SDS011;109;19.806;-70.704;2022-11-15T09:11:43;9.90;;;5.63;;
249;SDS011;109;19.806;-70.704;2022-11-15T09:14:35;7.40;;;5.27;;
249;SDS011;109;19.806;-70.704;2022-11-15T09:17:34;10.33;;;5.70;;
249;SDS011;109;19.806;-70.704;2022-11-15T09:20:26;12.00;;;5.80;;
249;SDS011;109;19.806;-70.704;2022-11-15T09:23:24;8.70;;;5.43;;
249;SDS011;109;19.806;-70.704;2022-11-15T09:26:23;13.00;;;5.37;;
249;SDS011;109;19.806;-70.704;2022-11-15T09:29:21;10.47;;;5.73;;
249;SDS011;109;19.806;-70.704;2022-11-15T09:32:19;11.33;;;5.87;;
249;SDS011;109;19.806;-70.704;2022-11-15T09:35:11;11.33;;;5.50;;
249;SDS011;109;19.806;-70.704;2022-11-15T09:38:10;13.13;;;6.20;;
249;SDS011;109;19.806;-70.704;2022-11-15T09:41:12;18.63;;;6.93;;
249;SDS011;109;19.806;-70.704;2022-11-15T09:51:23;10.90;;;5.63;;
249;SDS011;109;19.806;-70.704;2022-11-15T09:56:47;11.43;;;6.07;;
249;SDS011;109;19.806;-70.704;2022-11-15T10:04:53;15.10;;;5.93;;
249;SDS011;109;19.806;-70.704;2022-11-15T10:13:25;9.33;;;5.07;;
249;SDS011;109;19.806;-70.704;2022-11-15T10:16:19;13.13;;;5.70;;
249;SDS011;109;19.806;-70.704;2022-11-15T10:28:06;9.70;;;5.30;;
249;SDS011;109;19.806;-70.704;2022-11-15T10:34:23;8.17;;;4.70;;
249;SDS011;109;19.806;-70.704;2022-11-15T10:37:04;8.77;;;6.07;;
249;SDS011;109;19.806;-70.704;2022-11-15T10:39:31;14.10;;;5.90;;
249;SDS011;109;19.806;-70.704;2022-11-15T10:42:18;8.87;;;5.50;;
249;SDS011;109;19.806;-70.704;2022-11-15T10:44:58;10.40;;;5.90;;
249;SDS011;109;19.806;-70.704;2022-11-15T10:47:38;10.73;;;5.83;;
249;SDS011;109;19.806;-70.704;2022-11-15T10:50:06;6.63;;;5.60;;
249;SDS011;109;19.806;-70.704;2022-11-15T10:56:06;11.27;;;5.83;;
249;SDS011;109;19.806;-70.704;2022-11-15T10:58:39;17.50;;;15.00;;
249;SDS011;109;19.806;-70.704;2022-11-15T11:01:16;18.97;;;16.23;;
249;SDS011;109;19.806;-70.704;2022-11-15T11:03:45;16.83;;;15.97;;
249;SDS011;109;19.806;-70.704;2022-11-15T11:06:27;13.20;;;12.00;;
249;SDS011;109;19.806;-70.704;2022-11-15T11:08:58;11.07;;;7.63;;
249;SDS011;109;19.806;-70.704;2022-11-15T11:14:21;15.60;;;7.50;;
249;SDS011;109;19.806;-70.704;2022-11-15T11:17:13;7.70;;;6.60;;
249;SDS011;109;19.806;-70.704;2022-11-15T11:20:50;14.50;;;7.97;;
249;SDS011;109;19.806;-70.704;2022-11-15T11:25:39;20.87;;;13.50;;
249;SDS011;109;19.806;-70.704;2022-11-15T11:31:25;11.53;;;8.00;;
249;SDS011;109;19.806;-70.704;2022-11-15T11:34:13;14.30;;;8.47;;
249;SDS011;109;19.806;-70.704;2022-11-15T11:37:02;15.73;;;9.20;;
249;SDS011;109;19.806;-70.704;2022-11-15T11:39:48;14.30;;;8.90;;
249;SDS011;109;19.806;-70.704;2022-11-15T11:42:20;12.60;;;5.80;;
249;SDS011;109;19.806;-70.704;2022-11-15T11:47:53;7.70;;;4.70;;
249;SDS011;109;19.806;-70.704;2022-11-15T11:50:38;9.80;;;5.10;;
249;SDS011;109;19.806;-70.704;2022-11-15T11:53:15;11.50;;;4.60;;
249;SDS011;109;19.806;-70.704;2022-11-15T11:55:52;9.40;;;5.20;;
249;SDS011;109;19.806;-70.704;2022-11-15T11:58:26;8.10;;;4.13;;
249;SDS011;109;19.806;-70.704;2022-11-15T12:01:22;10.80;;;4.40;;
249;SDS011;109;19.806;-70.704;2022-11-15T12:04:04;12.40;;;5.57;;
249;SDS011;109;19.806;-70.704;2022-11-15T12:06:39;11.10;;;4.83;;
249;SDS011;109;19.806;-70.704;2022-11-15T12:14:47;11.80;;;4.40;;
249;SDS011;109;19.806;-70.704;2022-11-15T12:17:21;11.50;;;4.67;;
249;SDS011;109;19.806;-70.704;2022-11-15T12:19:51;10.20;;;4.93;;
249;SDS011;109;19.806;-70.704;2022-11-15T12:22:24;9.50;;;4.30;;
249;SDS011;109;19.806;-70.704;2022-11-15T12:25:05;12.60;;;4.20;;
249;SDS011;109;19.806;-70.704;2022-11-15T12:27:50;11.60;;;4.27;;
249;SDS011;109;19.806;-70.704;2022-11-15T12:30:22;9.50;;;3.57;;
249;SDS011;109;19.806;-70.704;2022-11-15T12:33:00;13.53;;;4.30;;
249;SDS011;109;19.806;-70.704;2022-11-15T12:35:30;9.73;;;4.20;;
249;SDS011;109;19.806;-70.704;2022-11-15T12:38:11;9.30;;;3.73;;
249;SDS011;109;19.806;-70.704;2022-11-15T12:40:39;15.43;;;4.13;;
249;SDS011;109;19.806;-70.704;2022-11-15T12:43:44;13.23;;;3.70;;
249;SDS011;109;19.806;-70.704;2022-11-15T12:46:14;10.40;;;3.93;;
249;SDS011;109;19.806;-70.704;2022-11-15T12:48:51;8.77;;;3.60;;
249;SDS011;109;19.806;-70.704;2022-11-15T12:51:20;15.90;;;4.37;;
249;SDS011;109;19.806;-70.704;2022-11-15T13:18:29;10.30;;;4.27;;
249;SDS011;109;19.806;-70.704;2022-11-15T13:21:01;10.90;;;3.97;;
249;SDS011;109;19.806;-70.704;2022-11-15T13:23:52;16.03;;;4.50;;
249;SDS011;109;19.806;-70.704;2022-11-15T13:26:20;11.57;;;3.87;;
249;SDS011;109;19.806;-70.704;2022-11-15T13:28:48;10.17;;;4.03;;
249;SDS011;109;19.806;-70.704;2022-11-15T13:31:37;10.63;;;4.30;;
249;SDS011;109;19.806;-70.704;2022-11-15T13:36:51;21.43;;;5.33;;
249;SDS011;109;19.806;-70.704;2022-11-15T13:39:31;19.80;;;4.37;;
249;SDS011;109;19.806;-70.704;2022-11-15T13:41:59;28.27;;;5.07;;
249;SDS011;109;19.806;-70.704;2022-11-15T13:44:27;18.33;;;4.97;;
249;SDS011;109;19.806;-70.704;2022-11-15T13:47:00;13.50;;;4.60;;
249;SDS011;109;19.806;-70.704;2022-11-15T13:49:29;17.07;;;4.83;;
249;SDS011;109;19.806;-70.704;2022-11-15T13:51:57;13.13;;;4.30;;
249;SDS011;109;19.806;-70.704;2022-11-15T13:55:02;22.37;;;4.43;;
249;SDS011;109;19.806;-70.704;2022-11-15T13:57:22;17.07;;;4.47;;
249;SDS011;109;19.806;-70.704;2022-11-15T13:59:54;10.50;;;4.63;;
249;SDS011;109;19.806;-70.704;2022-11-15T14:02:27;15.50;;;4.80;;
249;SDS011;109;19.806;-70.704;2022-11-15T14:05:15;25.83;;;4.20;;
249;SDS011;109;19.806;-70.704;2022-11-15T14:07:57;11.97;;;4.90;;
249;SDS011;109;19.806;-70.704;2022-11-15T14:10:35;16.23;;;4.20;;
249;SDS011;109;19.806;-70.704;2022-11-15T14:13:03;15.73;;;4.33;;
249;SDS011;109;19.806;-70.704;2022-11-15T14:15:37;12.53;;;4.53;;
249;SDS011;109;19.806;-70.704;2022-11-15T14:18:05;22.07;;;5.30;;
249;SDS011;109;19.806;-70.704;2022-11-15T14:21:16;13.17;;;4.70;;
249;SDS011;109;19.806;-70.704;2022-11-15T14:23:41;18.13;;;5.00;;
249;SDS011;109;19.806;-70.704;2022-11-15T14:26:11;16.93;;;5.90;;
249;SDS011;109;19.806;-70.704;2022-11-15T14:28:56;18.87;;;5.40;;
249;SDS011;109;19.806;-70.704;2022-11-15T14:31:22;16.03;;;4.87;;
249;SDS011;109;19.806;-70.704;2022-11-15T14:33:49;24.77;;;4.50;;
249;SDS011;109;19.806;-70.704;2022-11-15T14:36:16;17.47;;;5.27;;
249;SDS011;109;19.806;-70.704;2022-11-15T14:38:45;18.13;;;4.40;;
249;SDS011;109;19.806;-70.704;2022-11-15T14:41:20;20.13;;;4.77;;
249;SDS011;109;19.806;-70.704;2022-11-15T14:43:48;7.70;;;3.67;;
249;SDS011;109;19.806;-70.704;2022-11-15T14:46:15;24.03;;;4.23;;
249;SDS011;109;19.806;-70.704;2022-11-15T14:48:41;24.27;;;4.60;;
249;SDS011;109;19.806;-70.704;2022-11-15T14:51:11;21.43;;;5.40;;
249;SDS011;109;19.806;-70.704;2022-11-15T14:53:39;18.73;;;4.77;;
249;SDS011;109;19.806;-70.704;2022-11-15T14:56:07;16.47;;;5.00;;
249;SDS011;109;19.806;-70.704;2022-11-15T14:58:33;21.00;;;4.63;;
249;SDS011;109;19.806;-70.704;2022-11-15T15:01:01;25.67;;;4.73;;
249;SDS011;109;19.806;-70.704;2022-11-15T15:03:35;16.90;;;4.40;;
249;SDS011;109;19.806;-70.704;2022-11-15T15:06:01;20.23;;;4.77;;
249;SDS011;109;19.806;-70.704;2022-11-15T15:08:28;22.77;;;3.83;;
249;SDS011;109;19.806;-70.704;2022-11-15T15:10:54;19.67;;;4.20;;
249;SDS011;109;19.806;-70.704;2022-11-15T15:13:22;24.37;;;5.00;;
249;SDS011;109;19.806;-70.704;2022-11-15T15:15:50;20.67;;;4.70;;
249;SDS011;109;19.806;-70.704;2022-11-15T15:18:17;22.87;;;4.70;;
249;SDS011;109;19.806;-70.704;2022-11-15T15:20:45;22.17;;;4.80;;
249;SDS011;109;19.806;-70.704;2022-11-15T15:23:20;16.00;;;4.30;;
249;SDS011;109;19.806;-70.704;2022-11-15T15:25:48;25.77;;;4.60;;
249;SDS011;109;19.806;-70.704;2022-11-15T15:28:18;16.17;;;4.60;;
249;SDS011;109;19.806;-70.704;2022-11-15T15:30:44;18.27;;;4.20;;
249;SDS011;109;19.806;-70.704;2022-11-15T15:33:11;22.87;;;4.50;;
249;SDS011;109;19.806;-70.704;2022-11-15T15:35:37;19.33;;;4.03;;
249;SDS011;109;19.806;-70.704;2022-11-15T15:38:04;23.13;;;4.30;;
249;SDS011;109;19.806;-70.704;2022-11-15T15:40:31;26.60;;;4.50;;
249;SDS011;109;19.806;-70.704;2022-11-15T15:42:58;14.53;;;3.60;;
249;SDS011;109;19.806;-70.704;2022-11-15T15:45:25;16.73;;;4.57;;
249;SDS011;109;19.806;-70.704;2022-11-15T15:47:53;17.53;;;3.87;;
249;SDS011;109;19.806;-70.704;2022-11-15T15:52:49;18.27;;;4.23;;
249;SDS011;109;19.806;-70.704;2022-11-15T15:55:16;16.30;;;4.73;;
249;SDS011;109;19.806;-70.704;2022-11-15T15:57:43;15.93;;;4.00;;
249;SDS011;109;19.806;-70.704;2022-11-15T16:00:10;14.93;;;4.53;;
249;SDS011;109;19.806;-70.704;2022-11-15T16:02:40;14.07;;;3.83;;
249;SDS011;109;19.806;-70.704;2022-11-15T16:05:07;14.23;;;4.07;;
249;SDS011;109;19.806;-70.704;2022-11-15T16:07:34;16.40;;;4.37;;
249;SDS011;109;19.806;-70.704;2022-11-15T16:10:02;22.33;;;4.90;;
249;SDS011;109;19.806;-70.704;2022-11-15T16:12:41;15.33;;;4.10;;
249;SDS011;109;19.806;-70.704;2022-11-15T16:15:07;16.00;;;3.83;;
249;SDS011;109;19.806;-70.704;2022-11-15T16:17:38;22.40;;;4.50;;
249;SDS011;109;19.806;-70.704;2022-11-15T16:20:12;20.67;;;4.97;;
249;SDS011;109;19.806;-70.704;2022-11-15T16:22:47;18.80;;;4.30;;
249;SDS011;109;19.806;-70.704;2022-11-15T16:25:14;19.47;;;4.63;;
249;SDS011;109;19.806;-70.704;2022-11-15T16:27:40;19.60;;;4.70;;
249;SDS011;109;19.806;-70.704;2022-11-15T16:30:14;14.80;;;3.90;;
249;SDS011;109;19.806;-70.704;2022-11-15T16:32:42;21.73;;;4.20;;
249;SDS011;109;19.806;-70.704;2022-11-15T16:35:12;25.07;;;6.10;;
249;SDS011;109;19.806;-70.704;2022-11-15T16:37:39;33.07;;;5.07;;
249;SDS011;109;19.806;-70.704;2022-11-15T16:42:51;37.80;;;7.07;;
249;SDS011;109;19.806;-70.704;2022-11-15T16:45:18;16.93;;;5.17;;
249;SDS011;109;19.806;-70.704;2022-11-15T16:47:44;24.20;;;5.70;;
249;SDS011;109;19.806;-70.704;2022-11-15T16:50:24;24.90;;;5.83;;
249;SDS011;109;19.806;-70.704;2022-11-15T16:52:53;22.77;;;4.80;;
249;SDS011;109;19.806;-70.704;2022-11-15T16:55:23;26.40;;;6.80;;
249;SDS011;109;19.806;-70.704;2022-11-15T16:57:55;29.07;;;6.13;;
249;SDS011;109;19.806;-70.704;2022-11-15T17:00:23;21.90;;;5.50;;
249;SDS011;109;19.806;-70.704;2022-11-15T17:02:50;33.90;;;5.57;;
249;SDS011;109;19.806;-70.704;2022-11-15T17:05:18;20.00;;;5.73;;
249;SDS011;109;19.806;-70.704;2022-11-15T17:07:47;19.47;;;4.70;;
249;SDS011;109;19.806;-70.704;2022-11-15T17:10:15;26.70;;;5.93;;
249;SDS011;109;19.806;-70.704;2022-11-15T17:12:41;28.00;;;7.70;;
249;SDS011;109;19.806;-70.704;2022-11-15T17:15:09;27.77;;;5.43;;
249;SDS011;109;19.806;-70.704;2022-11-15T17:17:37;32.40;;;7.43;;
249;SDS011;109;19.806;-70.704;2022-11-15T17:20:04;27.37;;;7.30;;
249;SDS011;109;19.806;-70.704;2022-11-15T17:22:34;25.37;;;6.40;;
249;SDS011;109;19.806;-70.704;2022-11-15T17:25:02;25.27;;;6.33;;
249;SDS011;109;19.806;-70.704;2022-11-15T17:27:29;27.07;;;5.70;;
249;SDS011;109;19.806;-70.704;2022-11-15T17:29:56;30.13;;;5.10;;
249;SDS011;109;19.806;-70.704;2022-11-15T17:32:23;34.13;;;6.60;;
249;SDS011;109;19.806;-70.704;2022-11-15T17:34:49;32.00;;;5.00;;
249;SDS011;109;19.806;-70.704;2022-11-15T17:37:16;26.90;;;5.70;;
249;SDS011;109;19.806;-70.704;2022-11-15T17:39:42;28.20;;;6.00;;
249;SDS011;109;19.806;-70.704;2022-11-15T17:42:08;33.23;;;5.67;;
249;SDS011;109;19.806;-70.704;2022-11-15T17:44:35;21.80;;;5.00;;
249;SDS011;109;19.806;-70.704;2022-11-15T17:47:01;48.83;;;6.03;;
249;SDS011;109;19.806;-70.704;2022-11-15T17:49:28;25.10;;;5.77;;
249;SDS011;109;19.806;-70.704;2022-11-15T17:51:54;23.87;;;5.73;;
249;SDS011;109;19.806;-70.704;2022-11-15T17:54:20;36.07;;;6.43;;
249;SDS011;109;19.806;-70.704;2022-11-15T17:56:47;20.13;;;5.40;;
249;SDS011;109;19.806;-70.704;2022-11-15T17:59:13;25.43;;;5.70;;
249;SDS011;109;19.806;-70.704;2022-11-15T18:01:41;31.50;;;5.80;;
249;SDS011;109;19.806;-70.704;2022-11-15T18:04:08;29.23;;;5.90;;
249;SDS011;109;19.806;-70.704;2022-11-15T18:06:35;28.30;;;5.40;;
249;SDS011;109;19.806;-70.704;2022-11-15T18:09:02;17.70;;;4.33;;
249;SDS011;109;19.806;-70.704;2022-11-15T18:11:35;19.60;;;5.40;;
249;SDS011;109;19.806;-70.704;2022-11-15T18:14:07;22.93;;;5.67;;
249;SDS011;109;19.806;-70.704;2022-11-15T18:16:37;28.23;;;5.90;;
249;SDS011;109;19.806;-70.704;2022-11-15T18:19:04;24.50;;;5.17;;
249;SDS011;109;19.806;-70.704;2022-11-15T18:21:38;20.07;;;4.63;;
249;SDS011;109;19.806;-70.704;2022-11-15T18:24:26;22.53;;;5.27;;
249;SDS011;109;19.806;-70.704;2022-11-15T18:26:54;19.30;;;4.97;;
249;SDS011;109;19.806;-70.704;2022-11-15T18:29:21;19.33;;;5.20;;
249;SDS011;109;19.806;-70.704;2022-11-15T18:31:49;53.77;;;7.93;;
249;SDS011;109;19.806;-70.704;2022-11-15T18:34:22;32.90;;;6.43;;
249;SDS011;109;19.806;-70.704;2022-11-15T18:37:00;29.23;;;5.60;;
249;SDS011;109;19.806;-70.704;2022-11-15T18:39:31;17.63;;;5.00;;
249;SDS011;109;19.806;-70.704;2022-11-15T18:41:57;37.47;;;6.07;;
249;SDS011;109;19.806;-70.704;2022-11-15T18:44:24;23.77;;;5.10;;
249;SDS011;109;19.806;-70.704;2022-11-15T18:46:52;26.17;;;4.83;;
249;SDS011;109;19.806;-70.704;2022-11-15T18:49:19;16.70;;;4.30;;